sensor_id;sensor_type;location;lat;lon;timestamp;P1;durP1;ratioP1;P2;durP2;ratioP2
64633;SDS011;51043;52.406;9.690;2023-03-01T00:01:16;14.07;;;10.37;;
64633;SDS011;51043;52.406;9.690;2023-03-01T00:03:45;17.63;;;10.00;;
64633;SDS011;51043;52.406;9.690;2023-03-01T00:06:12;21.73;;;10.63;;
64633;SDS011;51043;52.406;9.690;2023-03-01T00:08:40;16.83;;;9.67;;
64633;SDS011;51043;52.406;9.690;2023-03-01T00:13:47;16.90;;;10.03;;
64633;SDS011;51043;52.406;9.690;2023-03-01T00:16:22;17.87;;;11.10;;
64633;SDS011;51043;52.406;9.690;2023-03-01T00:18:55;16.73;;;10.60;;
64633;SDS011;51043;52.406;9.690;2023-03-01T00:21:25;15.17;;;10.50;;
64633;SDS011;51043;52.406;9.690;2023-03-01T00:23:53;17.67;;;11.20;;
64633;SDS011;51043;52.406;9.690;2023-03-01T00:26:21;15.37;;;10.60;;
64633;SDS011;51043;52.406;9.690;2023-03-01T00:28:53;17.40;;;10.50;;
64633;SDS011;51043;52.406;9.690;2023-03-01T00:31:29;17.50;;;11.37;;
64633;SDS011;51043;52.406;9.690;2023-03-01T00:34:02;18.70;;;10.50;;
64633;SDS011;51043;52.406;9.690;2023-03-01T00:36:31;18.60;;;10.90;;
64633;SDS011;51043;52.406;9.690;2023-03-01T00:39:00;17.33;;;10.33;;
64633;SDS011;51043;52.406;9.690;2023-03-01T00:41:29;17.90;;;10.27;;
64633;SDS011;51043;52.406;9.690;2023-03-01T00:43:56;18.53;;;11.03;;
64633;SDS011;51043;52.406;9.690;2023-03-01T00:46:28;16.63;;;10.33;;
64633;SDS011;51043;52.406;9.690;2023-03-01T00:49:00;16.87;;;10.07;;
64633;SDS011;51043;52.406;9.690;2023-03-01T00:51:28;16.80;;;10.43;;
64633;SDS011;51043;52.406;9.690;2023-03-01T00:53:56;16.93;;;10.73;;
64633;SDS011;51043;52.406;9.690;2023-03-01T00:56:27;17.60;;;10.77;;
64633;SDS011;51043;52.406;9.690;2023-03-01T00:58:54;14.33;;;10.00;;
64633;SDS011;51043;52.406;9.690;2023-03-01T01:01:29;16.87;;;10.73;;
64633;SDS011;51043;52.406;9.690;2023-03-01T01:04:03;15.73;;;10.10;;
64633;SDS011;51043;52.406;9.690;2023-03-01T01:06:37;15.47;;;10.53;;
64633;SDS011;51043;52.406;9.690;2023-03-01T01:09:09;15.37;;;10.53;;
64633;SDS011;51043;52.406;9.690;2023-03-01T01:11:46;18.87;;;10.77;;
64633;SDS011;51043;52.406;9.690;2023-03-01T01:14:18;17.17;;;10.77;;
64633;SDS011;51043;52.406;9.690;2023-03-01T01:16:53;15.00;;;10.53;;
64633;SDS011;51043;52.406;9.690;2023-03-01T01:19:20;17.33;;;10.73;;
64633;SDS011;51043;52.406;9.690;2023-03-01T01:21:47;19.93;;;10.60;;
64633;SDS011;51043;52.406;9.690;2023-03-01T01:24:15;17.80;;;11.87;;
64633;SDS011;51043;52.406;9.690;2023-03-01T01:26:42;20.70;;;11.33;;
64633;SDS011;51043;52.406;9.690;2023-03-01T01:29:11;19.97;;;11.13;;
64633;SDS011;51043;52.406;9.690;2023-03-01T01:31:40;16.13;;;11.27;;
64633;SDS011;51043;52.406;9.690;2023-03-01T01:34:09;17.80;;;11.20;;
64633;SDS011;51043;52.406;9.690;2023-03-01T01:36:40;18.00;;;10.77;;
64633;SDS011;51043;52.406;9.690;2023-03-01T01:39:07;15.80;;;10.93;;
64633;SDS011;51043;52.406;9.690;2023-03-01T01:41:40;17.20;;;11.13;;
64633;SDS011;51043;52.406;9.690;2023-03-01T01:44:21;15.57;;;10.37;;
64633;SDS011;51043;52.406;9.690;2023-03-01T01:49:38;20.80;;;11.50;;
64633;SDS011;51043;52.406;9.690;2023-03-01T01:54:50;16.23;;;10.50;;
64633;SDS011;51043;52.406;9.690;2023-03-01T01:57:22;13.90;;;10.50;;
64633;SDS011;51043;52.406;9.690;2023-03-01T01:59:54;16.00;;;10.67;;
64633;SDS011;51043;52.406;9.690;2023-03-01T02:02:24;16.40;;;10.77;;
64633;SDS011;51043;52.406;9.690;2023-03-01T02:04:53;16.17;;;11.20;;
64633;SDS011;51043;52.406;9.690;2023-03-01T02:07:30;21.07;;;10.90;;
64633;SDS011;51043;52.406;9.690;2023-03-01T02:09:57;16.27;;;10.57;;
64633;SDS011;51043;52.406;9.690;2023-03-01T02:12:24;16.20;;;11.17;;
64633;SDS011;51043;52.406;9.690;2023-03-01T02:14:52;18.93;;;11.07;;
64633;SDS011;51043;52.406;9.690;2023-03-01T02:17:19;19.70;;;11.50;;
64633;SDS011;51043;52.406;9.690;2023-03-01T02:20:03;19.87;;;10.70;;
64633;SDS011;51043;52.406;9.690;2023-03-01T02:22:49;17.07;;;11.47;;
64633;SDS011;51043;52.406;9.690;2023-03-01T02:25:33;25.43;;;11.30;;
64633;SDS011;51043;52.406;9.690;2023-03-01T02:28:31;22.83;;;10.97;;
64633;SDS011;51043;52.406;9.690;2023-03-01T02:30:59;18.77;;;11.53;;
64633;SDS011;51043;52.406;9.690;2023-03-01T02:33:46;20.00;;;11.13;;
64633;SDS011;51043;52.406;9.690;2023-03-01T02:36:21;18.93;;;12.00;;
64633;SDS011;51043;52.406;9.690;2023-03-01T02:38:52;17.97;;;10.90;;
64633;SDS011;51043;52.406;9.690;2023-03-01T02:41:22;17.83;;;10.83;;
64633;SDS011;51043;52.406;9.690;2023-03-01T02:43:51;19.67;;;12.00;;
64633;SDS011;51043;52.406;9.690;2023-03-01T02:46:22;17.20;;;11.70;;
64633;SDS011;51043;52.406;9.690;2023-03-01T02:48:53;18.10;;;11.87;;
64633;SDS011;51043;52.406;9.690;2023-03-01T02:54:19;19.17;;;11.60;;
64633;SDS011;51043;52.406;9.690;2023-03-01T02:56:54;15.03;;;11.03;;
64633;SDS011;51043;52.406;9.690;2023-03-01T02:59:23;20.60;;;12.33;;
64633;SDS011;51043;52.406;9.690;2023-03-01T03:01:53;19.93;;;11.93;;
64633;SDS011;51043;52.406;9.690;2023-03-01T03:04:20;21.37;;;12.23;;
64633;SDS011;51043;52.406;9.690;2023-03-01T03:06:49;25.90;;;13.13;;
64633;SDS011;51043;52.406;9.690;2023-03-01T03:09:18;22.37;;;12.20;;
64633;SDS011;51043;52.406;9.690;2023-03-01T03:11:45;22.43;;;13.57;;
64633;SDS011;51043;52.406;9.690;2023-03-01T03:14:13;21.40;;;12.27;;
64633;SDS011;51043;52.406;9.690;2023-03-01T03:16:44;20.97;;;12.53;;
64633;SDS011;51043;52.406;9.690;2023-03-01T03:19:14;21.70;;;13.10;;
64633;SDS011;51043;52.406;9.690;2023-03-01T03:21:42;20.27;;;13.67;;
64633;SDS011;51043;52.406;9.690;2023-03-01T03:24:09;25.40;;;15.80;;
64633;SDS011;51043;52.406;9.690;2023-03-01T03:26:36;24.63;;;15.20;;
64633;SDS011;51043;52.406;9.690;2023-03-01T03:29:03;30.00;;;15.43;;
64633;SDS011;51043;52.406;9.690;2023-03-01T03:31:30;33.57;;;14.73;;
64633;SDS011;51043;52.406;9.690;2023-03-01T03:33:57;29.27;;;15.73;;
64633;SDS011;51043;52.406;9.690;2023-03-01T03:36:25;25.00;;;15.50;;
64633;SDS011;51043;52.406;9.690;2023-03-01T03:38:52;24.27;;;14.60;;
64633;SDS011;51043;52.406;9.690;2023-03-01T03:41:19;28.70;;;15.60;;
64633;SDS011;51043;52.406;9.690;2023-03-01T03:43:45;24.27;;;14.87;;
64633;SDS011;51043;52.406;9.690;2023-03-01T03:46:13;28.37;;;15.63;;
64633;SDS011;51043;52.406;9.690;2023-03-01T03:48:40;30.30;;;15.37;;
64633;SDS011;51043;52.406;9.690;2023-03-01T03:51:10;22.13;;;14.60;;
64633;SDS011;51043;52.406;9.690;2023-03-01T03:53:38;24.77;;;14.07;;
64633;SDS011;51043;52.406;9.690;2023-03-01T03:56:06;19.70;;;12.47;;
64633;SDS011;51043;52.406;9.690;2023-03-01T03:58:33;22.93;;;13.70;;
64633;SDS011;51043;52.406;9.690;2023-03-01T04:01:00;21.43;;;12.90;;
64633;SDS011;51043;52.406;9.690;2023-03-01T04:03:27;20.80;;;12.63;;
64633;SDS011;51043;52.406;9.690;2023-03-01T04:05:57;22.33;;;13.23;;
64633;SDS011;51043;52.406;9.690;2023-03-01T04:08:25;21.70;;;12.80;;
64633;SDS011;51043;52.406;9.690;2023-03-01T04:10:56;19.50;;;13.00;;
64633;SDS011;51043;52.406;9.690;2023-03-01T04:13:26;24.10;;;13.60;;
64633;SDS011;51043;52.406;9.690;2023-03-01T04:15:53;22.77;;;13.27;;
64633;SDS011;51043;52.406;9.690;2023-03-01T04:18:21;26.03;;;13.57;;
64633;SDS011;51043;52.406;9.690;2023-03-01T04:20:49;19.10;;;12.83;;
64633;SDS011;51043;52.406;9.690;2023-03-01T04:23:19;21.73;;;12.00;;
64633;SDS011;51043;52.406;9.690;2023-03-01T04:25:48;19.43;;;12.60;;
64633;SDS011;51043;52.406;9.690;2023-03-01T04:28:22;29.70;;;13.17;;
64633;SDS011;51043;52.406;9.690;2023-03-01T04:30:51;25.60;;;13.37;;
64633;SDS011;51043;52.406;9.690;2023-03-01T04:33:19;19.80;;;12.47;;
64633;SDS011;51043;52.406;9.690;2023-03-01T04:35:47;23.40;;;12.60;;
64633;SDS011;51043;52.406;9.690;2023-03-01T04:38:18;20.13;;;13.00;;
64633;SDS011;51043;52.406;9.690;2023-03-01T04:40:45;22.37;;;12.93;;
64633;SDS011;51043;52.406;9.690;2023-03-01T04:43:13;19.23;;;12.37;;
64633;SDS011;51043;52.406;9.690;2023-03-01T04:45:40;21.03;;;12.90;;
64633;SDS011;51043;52.406;9.690;2023-03-01T04:48:08;20.13;;;12.33;;
64633;SDS011;51043;52.406;9.690;2023-03-01T04:50:35;21.60;;;11.87;;
64633;SDS011;51043;52.406;9.690;2023-03-01T04:53:02;22.73;;;12.10;;
64633;SDS011;51043;52.406;9.690;2023-03-01T04:55:29;19.37;;;12.93;;
64633;SDS011;51043;52.406;9.690;2023-03-01T04:57:56;26.67;;;13.70;;
64633;SDS011;51043;52.406;9.690;2023-03-01T05:00:23;23.33;;;13.13;;
64633;SDS011;51043;52.406;9.690;2023-03-01T05:02:56;20.20;;;12.57;;
64633;SDS011;51043;52.406;9.690;2023-03-01T05:07:54;20.50;;;12.53;;
64633;SDS011;51043;52.406;9.690;2023-03-01T05:10:27;20.40;;;13.43;;
64633;SDS011;51043;52.406;9.690;2023-03-01T05:12:56;24.20;;;13.20;;
64633;SDS011;51043;52.406;9.690;2023-03-01T05:15:24;22.90;;;12.37;;
64633;SDS011;51043;52.406;9.690;2023-03-01T05:17:53;21.67;;;13.00;;
64633;SDS011;51043;52.406;9.690;2023-03-01T05:20:21;19.83;;;12.37;;
64633;SDS011;51043;52.406;9.690;2023-03-01T05:22:51;18.13;;;13.70;;
64633;SDS011;51043;52.406;9.690;2023-03-01T05:25:22;20.10;;;12.57;;
64633;SDS011;51043;52.406;9.690;2023-03-01T05:27:50;25.27;;;12.57;;
64633;SDS011;51043;52.406;9.690;2023-03-01T05:30:17;20.20;;;13.23;;
64633;SDS011;51043;52.406;9.690;2023-03-01T05:32:46;27.10;;;12.70;;
64633;SDS011;51043;52.406;9.690;2023-03-01T05:35:15;20.97;;;12.60;;
64633;SDS011;51043;52.406;9.690;2023-03-01T05:37:45;22.63;;;12.83;;
64633;SDS011;51043;52.406;9.690;2023-03-01T05:40:14;20.57;;;12.30;;
64633;SDS011;51043;52.406;9.690;2023-03-01T05:42:45;24.17;;;12.63;;
64633;SDS011;51043;52.406;9.690;2023-03-01T05:45:14;22.57;;;14.87;;
64633;SDS011;51043;52.406;9.690;2023-03-01T05:47:43;17.57;;;11.53;;
64633;SDS011;51043;52.406;9.690;2023-03-01T05:50:22;24.00;;;13.07;;
64633;SDS011;51043;52.406;9.690;2023-03-01T05:52:52;24.00;;;12.50;;
64633;SDS011;51043;52.406;9.690;2023-03-01T05:55:26;21.17;;;13.10;;
64633;SDS011;51043;52.406;9.690;2023-03-01T05:57:57;17.07;;;12.37;;
64633;SDS011;51043;52.406;9.690;2023-03-01T06:00:25;24.67;;;12.60;;
64633;SDS011;51043;52.406;9.690;2023-03-01T06:02:56;21.57;;;12.67;;
64633;SDS011;51043;52.406;9.690;2023-03-01T06:05:24;19.07;;;12.17;;
64633;SDS011;51043;52.406;9.690;2023-03-01T06:07:51;21.07;;;12.63;;
64633;SDS011;51043;52.406;9.690;2023-03-01T06:10:21;24.20;;;12.97;;
64633;SDS011;51043;52.406;9.690;2023-03-01T06:12:48;19.17;;;13.33;;
64633;SDS011;51043;52.406;9.690;2023-03-01T06:15:22;25.57;;;13.33;;
64633;SDS011;51043;52.406;9.690;2023-03-01T06:17:49;26.47;;;13.70;;
64633;SDS011;51043;52.406;9.690;2023-03-01T06:20:18;19.97;;;13.40;;
64633;SDS011;51043;52.406;9.690;2023-03-01T06:22:47;21.83;;;13.73;;
64633;SDS011;51043;52.406;9.690;2023-03-01T06:25:16;28.03;;;13.17;;
64633;SDS011;51043;52.406;9.690;2023-03-01T06:27:46;27.70;;;14.13;;
64633;SDS011;51043;52.406;9.690;2023-03-01T06:30:14;19.10;;;12.70;;
64633;SDS011;51043;52.406;9.690;2023-03-01T06:32:43;22.47;;;14.23;;
64633;SDS011;51043;52.406;9.690;2023-03-01T06:35:10;25.70;;;13.77;;
64633;SDS011;51043;52.406;9.690;2023-03-01T06:37:39;41.90;;;16.63;;
64633;SDS011;51043;52.406;9.690;2023-03-01T06:40:07;43.83;;;19.00;;
64633;SDS011;51043;52.406;9.690;2023-03-01T06:42:35;45.70;;;20.07;;
64633;SDS011;51043;52.406;9.690;2023-03-01T06:45:02;36.97;;;18.47;;
64633;SDS011;51043;52.406;9.690;2023-03-01T06:47:30;51.13;;;23.37;;
64633;SDS011;51043;52.406;9.690;2023-03-01T06:49:59;51.83;;;24.70;;
64633;SDS011;51043;52.406;9.690;2023-03-01T06:52:27;41.80;;;20.60;;
64633;SDS011;51043;52.406;9.690;2023-03-01T06:54:54;46.90;;;22.27;;
64633;SDS011;51043;52.406;9.690;2023-03-01T06:57:21;46.60;;;21.87;;
64633;SDS011;51043;52.406;9.690;2023-03-01T06:59:48;61.20;;;25.97;;
64633;SDS011;51043;52.406;9.690;2023-03-01T07:02:15;39.67;;;21.83;;
64633;SDS011;51043;52.406;9.690;2023-03-01T07:04:51;42.83;;;22.53;;
64633;SDS011;51043;52.406;9.690;2023-03-01T07:07:20;45.93;;;21.87;;
64633;SDS011;51043;52.406;9.690;2023-03-01T07:09:48;36.33;;;15.80;;
64633;SDS011;51043;52.406;9.690;2023-03-01T07:12:16;32.70;;;16.47;;
64633;SDS011;51043;52.406;9.690;2023-03-01T07:14:43;24.50;;;14.23;;
64633;SDS011;51043;52.406;9.690;2023-03-01T07:17:10;30.50;;;14.87;;
64633;SDS011;51043;52.406;9.690;2023-03-01T07:19:42;30.93;;;14.23;;
64633;SDS011;51043;52.406;9.690;2023-03-01T07:22:10;17.57;;;11.87;;
64633;SDS011;51043;52.406;9.690;2023-03-01T07:24:36;18.03;;;11.07;;
64633;SDS011;51043;52.406;9.690;2023-03-01T07:27:07;22.33;;;11.30;;
64633;SDS011;51043;52.406;9.690;2023-03-01T07:29:35;24.53;;;11.57;;
64633;SDS011;51043;52.406;9.690;2023-03-01T07:32:03;23.47;;;12.27;;
64633;SDS011;51043;52.406;9.690;2023-03-01T07:34:30;17.47;;;9.97;;
64633;SDS011;51043;52.406;9.690;2023-03-01T07:36:57;19.37;;;10.10;;
64633;SDS011;51043;52.406;9.690;2023-03-01T07:39:24;17.73;;;10.07;;
64633;SDS011;51043;52.406;9.690;2023-03-01T07:41:51;23.47;;;10.27;;
64633;SDS011;51043;52.406;9.690;2023-03-01T07:44:21;14.97;;;10.93;;
64633;SDS011;51043;52.406;9.690;2023-03-01T07:46:48;14.23;;;9.13;;
64633;SDS011;51043;52.406;9.690;2023-03-01T07:49:15;17.47;;;9.03;;
64633;SDS011;51043;52.406;9.690;2023-03-01T07:51:42;14.60;;;9.23;;
64633;SDS011;51043;52.406;9.690;2023-03-01T07:54:09;26.60;;;9.57;;
64633;SDS011;51043;52.406;9.690;2023-03-01T07:56:36;24.27;;;10.27;;
64633;SDS011;51043;52.406;9.690;2023-03-01T07:59:03;32.23;;;9.50;;
64633;SDS011;51043;52.406;9.690;2023-03-01T08:01:30;22.13;;;9.60;;
64633;SDS011;51043;52.406;9.690;2023-03-01T08:03:56;20.57;;;9.17;;
64633;SDS011;51043;52.406;9.690;2023-03-01T08:06:23;26.83;;;9.63;;
64633;SDS011;51043;52.406;9.690;2023-03-01T08:08:50;46.33;;;10.55;;
64633;SDS011;51043;52.406;9.690;2023-03-01T08:11:17;35.30;;;9.25;;
64633;SDS011;51043;52.406;9.690;2023-03-01T08:13:46;18.00;;;8.77;;
64633;SDS011;51043;52.406;9.690;2023-03-01T08:16:16;16.63;;;7.70;;
64633;SDS011;51043;52.406;9.690;2023-03-01T08:18:43;10.35;;;7.00;;
64633;SDS011;51043;52.406;9.690;2023-03-01T08:21:11;14.25;;;7.15;;
64633;SDS011;51043;52.406;9.690;2023-03-01T08:23:40;16.60;;;7.25;;
64633;SDS011;51043;52.406;9.690;2023-03-01T08:26:09;12.07;;;6.65;;
64633;SDS011;51043;52.406;9.690;2023-03-01T08:28:41;11.68;;;6.43;;
64633;SDS011;51043;52.406;9.690;2023-03-01T08:33:44;14.25;;;7.07;;
64633;SDS011;51043;52.406;9.690;2023-03-01T08:36:25;13.25;;;7.32;;
64633;SDS011;51043;52.406;9.690;2023-03-01T08:39:00;27.17;;;7.50;;
64633;SDS011;51043;52.406;9.690;2023-03-01T08:41:27;14.50;;;6.45;;
64633;SDS011;51043;52.406;9.690;2023-03-01T08:43:55;10.57;;;6.45;;
64633;SDS011;51043;52.406;9.690;2023-03-01T08:46:29;10.38;;;5.93;;
64633;SDS011;51043;52.406;9.690;2023-03-01T08:48:58;22.83;;;6.50;;
64633;SDS011;51043;52.406;9.690;2023-03-01T08:51:25;13.07;;;6.85;;
64633;SDS011;51043;52.406;9.690;2023-03-01T08:53:52;12.07;;;6.13;;
64633;SDS011;51043;52.406;9.690;2023-03-01T08:56:22;11.10;;;6.88;;
64633;SDS011;51043;52.406;9.690;2023-03-01T08:58:49;10.98;;;6.07;;
64633;SDS011;51043;52.406;9.690;2023-03-01T09:01:17;13.70;;;6.32;;
64633;SDS011;51043;52.406;9.690;2023-03-01T09:03:45;12.98;;;5.95;;
64633;SDS011;51043;52.406;9.690;2023-03-01T09:06:12;12.88;;;5.90;;
64633;SDS011;51043;52.406;9.690;2023-03-01T09:08:42;11.93;;;6.20;;
64633;SDS011;51043;52.406;9.690;2023-03-01T09:11:12;12.00;;;6.25;;
64633;SDS011;51043;52.406;9.690;2023-03-01T09:13:45;11.98;;;6.05;;
64633;SDS011;51043;52.406;9.690;2023-03-01T09:16:13;14.25;;;6.30;;
64633;SDS011;51043;52.406;9.690;2023-03-01T09:18:43;10.07;;;6.28;;
64633;SDS011;51043;52.406;9.690;2023-03-01T09:21:15;8.57;;;5.90;;
64633;SDS011;51043;52.406;9.690;2023-03-01T09:23:46;6.97;;;5.10;;
64633;SDS011;51043;52.406;9.690;2023-03-01T09:26:15;10.80;;;5.45;;
64633;SDS011;51043;52.406;9.690;2023-03-01T09:28:48;9.13;;;5.20;;
64633;SDS011;51043;52.406;9.690;2023-03-01T09:31:17;11.30;;;5.83;;
64633;SDS011;51043;52.406;9.690;2023-03-01T09:33:47;8.07;;;4.97;;
64633;SDS011;51043;52.406;9.690;2023-03-01T09:36:23;8.33;;;5.30;;
64633;SDS011;51043;52.406;9.690;2023-03-01T09:38:51;10.10;;;4.80;;
64633;SDS011;51043;52.406;9.690;2023-03-01T09:44:20;6.97;;;5.50;;
64633;SDS011;51043;52.406;9.690;2023-03-01T09:47:17;9.20;;;6.00;;
64633;SDS011;51043;52.406;9.690;2023-03-01T09:52:46;11.83;;;6.13;;
64633;SDS011;51043;52.406;9.690;2023-03-01T09:55:46;10.67;;;6.27;;
64633;SDS011;51043;52.406;9.690;2023-03-01T09:59:17;14.53;;;6.17;;
64633;SDS011;51043;52.406;9.690;2023-03-01T10:09:34;8.20;;;6.00;;
64633;SDS011;51043;52.406;9.690;2023-03-01T10:12:04;8.20;;;5.43;;
64633;SDS011;51043;52.406;9.690;2023-03-01T10:19:53;11.20;;;5.27;;
64633;SDS011;51043;52.406;9.690;2023-03-01T10:22:29;8.68;;;5.70;;
64633;SDS011;51043;52.406;9.690;2023-03-01T10:24:58;5.47;;;4.40;;
64633;SDS011;51043;52.406;9.690;2023-03-01T10:27:29;9.43;;;5.18;;
64633;SDS011;51043;52.406;9.690;2023-03-01T10:30:25;5.40;;;4.20;;
64633;SDS011;51043;52.406;9.690;2023-03-01T10:33:01;8.65;;;4.55;;
64633;SDS011;51043;52.406;9.690;2023-03-01T10:35:29;6.78;;;4.40;;
64633;SDS011;51043;52.406;9.690;2023-03-01T10:40:35;5.72;;;4.13;;
64633;SDS011;51043;52.406;9.690;2023-03-01T10:43:03;7.65;;;4.32;;
64633;SDS011;51043;52.406;9.690;2023-03-01T10:45:38;5.72;;;3.90;;
64633;SDS011;51043;52.406;9.690;2023-03-01T10:48:13;3.83;;;3.42;;
64633;SDS011;51043;52.406;9.690;2023-03-01T10:50:43;6.65;;;3.60;;
64633;SDS011;51043;52.406;9.690;2023-03-01T10:53:22;5.55;;;3.90;;
64633;SDS011;51043;52.406;9.690;2023-03-01T10:56:17;5.07;;;4.00;;
64633;SDS011;51043;52.406;9.690;2023-03-01T10:59:02;4.50;;;3.83;;
64633;SDS011;51043;52.406;9.690;2023-03-01T11:01:46;4.65;;;3.30;;
64633;SDS011;51043;52.406;9.690;2023-03-01T11:04:58;5.72;;;4.15;;
64633;SDS011;51043;52.406;9.690;2023-03-01T11:07:29;5.57;;;3.60;;
64633;SDS011;51043;52.406;9.690;2023-03-01T11:09:56;6.93;;;3.53;;
64633;SDS011;51043;52.406;9.690;2023-03-01T11:12:23;6.68;;;4.40;;
64633;SDS011;51043;52.406;9.690;2023-03-01T11:14:54;7.82;;;3.60;;
64633;SDS011;51043;52.406;9.690;2023-03-01T11:17:29;4.50;;;3.80;;
64633;SDS011;51043;52.406;9.690;2023-03-01T11:22:43;6.32;;;3.53;;
64633;SDS011;51043;52.406;9.690;2023-03-01T11:25:21;5.07;;;3.38;;
64633;SDS011;51043;52.406;9.690;2023-03-01T11:27:55;8.13;;;3.58;;
64633;SDS011;51043;52.406;9.690;2023-03-01T11:30:24;5.28;;;4.43;;
64633;SDS011;51043;52.406;9.690;2023-03-01T11:39:22;5.03;;;3.72;;
64633;SDS011;51043;52.406;9.690;2023-03-01T11:42:15;5.68;;;3.30;;
64633;SDS011;51043;52.406;9.690;2023-03-01T11:44:47;4.10;;;3.53;;
64633;SDS011;51043;52.406;9.690;2023-03-01T11:50:46;5.07;;;3.20;;
64633;SDS011;51043;52.406;9.690;2023-03-01T11:58:57;5.28;;;3.20;;
64633;SDS011;51043;52.406;9.690;2023-03-01T12:01:49;5.85;;;2.80;;
64633;SDS011;51043;52.406;9.690;2023-03-01T12:05:04;4.55;;;3.10;;
64633;SDS011;51043;52.406;9.690;2023-03-01T12:10:29;3.88;;;2.97;;
64633;SDS011;51043;52.406;9.690;2023-03-01T12:13:13;3.72;;;3.08;;
64633;SDS011;51043;52.406;9.690;2023-03-01T12:16:07;3.83;;;3.00;;
64633;SDS011;51043;52.406;9.690;2023-03-01T12:33:06;9.20;;;2.78;;
64633;SDS011;51043;52.406;9.690;2023-03-01T12:38:45;4.47;;;3.03;;
64633;SDS011;51043;52.406;9.690;2023-03-01T12:41:22;6.15;;;3.17;;
64633;SDS011;51043;52.406;9.690;2023-03-01T12:47:20;3.50;;;2.72;;
64633;SDS011;51043;52.406;9.690;2023-03-01T12:50:18;4.70;;;3.10;;
64633;SDS011;51043;52.406;9.690;2023-03-01T12:52:57;7.07;;;3.15;;
64633;SDS011;51043;52.406;9.690;2023-03-01T13:06:32;10.57;;;3.73;;
64633;SDS011;51043;52.406;9.690;2023-03-01T13:11:45;5.83;;;3.40;;
64633;SDS011;51043;52.406;9.690;2023-03-01T13:16:51;6.40;;;3.53;;
64633;SDS011;51043;52.406;9.690;2023-03-01T13:19:23;8.03;;;3.97;;
64633;SDS011;51043;52.406;9.690;2023-03-01T13:21:53;7.73;;;3.60;;
64633;SDS011;51043;52.406;9.690;2023-03-01T13:29:53;11.73;;;4.00;;
64633;SDS011;51043;52.406;9.690;2023-03-01T13:32:30;10.27;;;3.77;;
64633;SDS011;51043;52.406;9.690;2023-03-01T13:37:45;5.30;;;3.80;;
64633;SDS011;51043;52.406;9.690;2023-03-01T13:42:43;6.00;;;3.90;;
64633;SDS011;51043;52.406;9.690;2023-03-01T13:45:22;5.03;;;3.50;;
64633;SDS011;51043;52.406;9.690;2023-03-01T13:48:03;6.03;;;4.03;;
64633;SDS011;51043;52.406;9.690;2023-03-01T13:50:46;4.20;;;3.37;;
64633;SDS011;51043;52.406;9.690;2023-03-01T13:53:17;4.03;;;3.10;;
64633;SDS011;51043;52.406;9.690;2023-03-01T13:55:51;5.60;;;3.53;;
64633;SDS011;51043;52.406;9.690;2023-03-01T13:58:26;6.13;;;3.43;;
64633;SDS011;51043;52.406;9.690;2023-03-01T14:01:05;5.33;;;3.77;;
64633;SDS011;51043;52.406;9.690;2023-03-01T14:03:40;5.10;;;3.40;;
64633;SDS011;51043;52.406;9.690;2023-03-01T14:06:10;7.10;;;3.53;;
64633;SDS011;51043;52.406;9.690;2023-03-01T14:08:45;4.60;;;3.40;;
64633;SDS011;51043;52.406;9.690;2023-03-01T14:17:06;4.50;;;3.13;;
64633;SDS011;51043;52.406;9.690;2023-03-01T14:19:36;6.47;;;3.80;;
64633;SDS011;51043;52.406;9.690;2023-03-01T14:24:58;4.53;;;3.20;;
64633;SDS011;51043;52.406;9.690;2023-03-01T14:27:33;4.80;;;3.37;;
64633;SDS011;51043;52.406;9.690;2023-03-01T14:30:12;5.03;;;3.90;;
64633;SDS011;51043;52.406;9.690;2023-03-01T14:32:55;5.07;;;3.30;;
64633;SDS011;51043;52.406;9.690;2023-03-01T14:35:26;5.83;;;3.40;;
64633;SDS011;51043;52.406;9.690;2023-03-01T14:37:57;5.83;;;3.73;;
64633;SDS011;51043;52.406;9.690;2023-03-01T14:42:57;5.40;;;3.50;;
64633;SDS011;51043;52.406;9.690;2023-03-01T14:45:29;5.27;;;3.37;;
64633;SDS011;51043;52.406;9.690;2023-03-01T14:47:58;6.77;;;3.40;;
64633;SDS011;51043;52.406;9.690;2023-03-01T14:50:29;7.73;;;3.57;;
64633;SDS011;51043;52.406;9.690;2023-03-01T14:52:59;9.47;;;3.87;;
64633;SDS011;51043;52.406;9.690;2023-03-01T14:55:29;5.63;;;3.60;;
64633;SDS011;51043;52.406;9.690;2023-03-01T14:57:57;5.00;;;3.67;;
64633;SDS011;51043;52.406;9.690;2023-03-01T15:00:28;4.80;;;3.53;;
64633;SDS011;51043;52.406;9.690;2023-03-01T15:03:00;4.47;;;3.37;;
64633;SDS011;51043;52.406;9.690;2023-03-01T15:05:40;5.30;;;3.77;;
64633;SDS011;51043;52.406;9.690;2023-03-01T15:08:16;4.77;;;3.57;;
64633;SDS011;51043;52.406;9.690;2023-03-01T15:11:04;6.67;;;4.07;;
64633;SDS011;51043;52.406;9.690;2023-03-01T15:13:43;7.70;;;3.90;;
64633;SDS011;51043;52.406;9.690;2023-03-01T15:16:13;9.23;;;3.83;;
64633;SDS011;51043;52.406;9.690;2023-03-01T15:18:45;7.43;;;3.90;;
64633;SDS011;51043;52.406;9.690;2023-03-01T15:21:18;6.07;;;3.93;;
64633;SDS011;51043;52.406;9.690;2023-03-01T15:23:50;5.20;;;3.60;;
64633;SDS011;51043;52.406;9.690;2023-03-01T15:26:28;6.60;;;3.67;;
64633;SDS011;51043;52.406;9.690;2023-03-01T15:28:58;4.63;;;3.40;;
64633;SDS011;51043;52.406;9.690;2023-03-01T15:31:27;5.27;;;3.60;;
64633;SDS011;51043;52.406;9.690;2023-03-01T15:34:08;6.10;;;3.87;;
64633;SDS011;51043;52.406;9.690;2023-03-01T15:36:52;6.80;;;4.13;;
64633;SDS011;51043;52.406;9.690;2023-03-01T15:39:27;4.87;;;3.77;;
64633;SDS011;51043;52.406;9.690;2023-03-01T15:41:59;9.13;;;4.23;;
64633;SDS011;51043;52.406;9.690;2023-03-01T15:44:27;5.13;;;3.83;;
64633;SDS011;51043;52.406;9.690;2023-03-01T15:47:27;6.27;;;4.00;;
64633;SDS011;51043;52.406;9.690;2023-03-01T15:49:56;5.77;;;3.53;;
64633;SDS011;51043;52.406;9.690;2023-03-01T15:52:29;8.87;;;5.40;;
64633;SDS011;51043;52.406;9.690;2023-03-01T15:55:14;5.70;;;4.00;;
64633;SDS011;51043;52.406;9.690;2023-03-01T15:57:45;6.47;;;3.70;;
64633;SDS011;51043;52.406;9.690;2023-03-01T16:00:13;6.90;;;3.97;;
64633;SDS011;51043;52.406;9.690;2023-03-01T16:02:42;5.67;;;3.97;;
64633;SDS011;51043;52.406;9.690;2023-03-01T16:05:17;6.53;;;4.40;;
64633;SDS011;51043;52.406;9.690;2023-03-01T16:07:47;5.70;;;4.03;;
64633;SDS011;51043;52.406;9.690;2023-03-01T16:10:14;5.50;;;3.90;;
64633;SDS011;51043;52.406;9.690;2023-03-01T16:12:41;4.83;;;3.67;;
64633;SDS011;51043;52.406;9.690;2023-03-01T16:15:19;6.07;;;4.20;;
64633;SDS011;51043;52.406;9.690;2023-03-01T16:17:50;6.33;;;4.23;;
64633;SDS011;51043;52.406;9.690;2023-03-01T16:20:22;6.47;;;4.03;;
64633;SDS011;51043;52.406;9.690;2023-03-01T16:22:53;7.70;;;4.07;;
64633;SDS011;51043;52.406;9.690;2023-03-01T16:25:20;7.07;;;3.60;;
64633;SDS011;51043;52.406;9.690;2023-03-01T16:27:49;4.43;;;3.63;;
64633;SDS011;51043;52.406;9.690;2023-03-01T16:30:18;7.23;;;3.80;;
64633;SDS011;51043;52.406;9.690;2023-03-01T16:32:46;7.80;;;4.27;;
64633;SDS011;51043;52.406;9.690;2023-03-01T16:35:15;6.40;;;3.73;;
64633;SDS011;51043;52.406;9.690;2023-03-01T16:37:44;6.57;;;4.03;;
64633;SDS011;51043;52.406;9.690;2023-03-01T16:40:21;6.17;;;3.73;;
64633;SDS011;51043;52.406;9.690;2023-03-01T16:42:54;7.03;;;4.00;;
64633;SDS011;51043;52.406;9.690;2023-03-01T16:45:26;7.77;;;4.70;;
64633;SDS011;51043;52.406;9.690;2023-03-01T16:47:54;6.00;;;4.43;;
64633;SDS011;51043;52.406;9.690;2023-03-01T16:50:22;8.30;;;4.80;;
64633;SDS011;51043;52.406;9.690;2023-03-01T16:52:49;10.47;;;4.70;;
64633;SDS011;51043;52.406;9.690;2023-03-01T16:55:16;8.30;;;5.40;;
64633;SDS011;51043;52.406;9.690;2023-03-01T16:57:43;8.77;;;5.03;;